createdAt,value
2023-02-18T00:05:31.659Z,59.32
2023-02-18T00:12:33.184Z,59.12
2023-02-18T00:19:34.756Z,60.12
2023-02-18T00:26:36.439Z,59.60
2023-02-18T00:33:38.141Z,60.29
2023-02-18T00:40:40.258Z,60.53
2023-02-18T00:47:41.937Z,61.10
2023-02-18T00:54:43.594Z,60.82
2023-02-18T01:01:45.611Z,61.21
2023-02-18T01:08:47.188Z,62.22
2023-02-18T01:15:48.913Z,61.79
2023-02-18T01:22:50.573Z,63.18
2023-02-18T01:29:52.270Z,62.18
2023-02-18T01:36:53.937Z,62.32
2023-02-18T01:44:32.971Z,62.93
2023-02-18T01:51:39.843Z,62.68
2023-02-18T01:58:41.461Z,62.09
2023-02-18T02:05:43.107Z,63.05
2023-02-18T02:12:51.467Z,62.42
2023-02-18T02:20:11.974Z,63.00
2023-02-18T02:27:21.490Z,63.32
2023-02-18T02:34:31.901Z,63.24
2023-02-18T02:41:46.395Z,63.97
2023-02-18T02:49:08.904Z,62.97
2023-02-18T02:56:18.139Z,63.41
2023-02-18T03:03:39.023Z,63.00
2023-02-18T03:11:09.899Z,63.26
2023-02-18T03:18:20.124Z,62.90
2023-02-18T03:25:22.113Z,62.68
2023-02-18T03:32:24.204Z,62.53
2023-02-18T03:39:27.577Z,62.53
2023-02-18T03:46:29.277Z,61.83
2023-02-18T03:53:31.424Z,61.60
2023-02-18T04:00:33.135Z,61.34
2023-02-18T04:07:35.030Z,60.68
2023-02-18T04:14:36.607Z,61.04
2023-02-18T04:21:38.198Z,60.38
2023-02-18T04:28:40.085Z,60.97
2023-02-18T04:35:42.126Z,60.72
2023-02-18T04:42:43.784Z,60.88
2023-02-18T04:49:45.354Z,60.83
2023-02-18T04:56:46.956Z,61.89
2023-02-18T05:03:48.593Z,61.44
2023-02-18T05:10:50.328Z,61.39
2023-02-18T05:17:51.956Z,61.50
2023-02-18T05:24:53.502Z,60.75
2023-02-18T05:31:55.300Z,60.84
2023-02-18T05:38:57.001Z,59.96
2023-02-18T05:45:58.537Z,59.29
2023-02-18T05:53:00.274Z,59.39
2023-02-18T06:00:02.017Z,59.45
2023-02-18T06:07:06.741Z,58.70
2023-02-18T06:14:08.344Z,58.85
2023-02-18T06:21:09.920Z,58.36
2023-02-18T06:28:11.518Z,57.94
2023-02-18T06:35:13.204Z,57.39
2023-02-18T06:42:14.775Z,57.89
2023-02-18T06:49:16.353Z,57.50
2023-02-18T06:56:18.070Z,57.42
2023-02-18T07:03:19.773Z,56.88
2023-02-18T07:10:21.452Z,57.82
2023-02-18T07:17:23.034Z,57.55
2023-02-18T07:24:24.652Z,57.80
2023-02-18T07:31:26.307Z,57.20
2023-02-18T07:38:28.242Z,57.25
2023-02-18T07:45:29.836Z,58.30
2023-02-18T07:52:31.531Z,58.29
2023-02-18T07:59:33.212Z,59.04
2023-02-18T08:06:42.718Z,60.22
2023-02-18T08:13:46.916Z,62.42
2023-02-18T08:20:48.860Z,63.04
2023-02-18T08:27:50.390Z,63.36
2023-02-18T08:34:51.930Z,63.61
2023-02-18T08:41:53.493Z,64.60
2023-02-18T08:48:55.055Z,66.52
2023-02-18T08:55:56.576Z,66.52
2023-02-18T09:02:58.217Z,67.35
2023-02-18T09:09:59.874Z,68.94
2023-02-18T09:17:01.706Z,68.91
2023-02-18T09:24:03.565Z,71.05
2023-02-18T09:31:09.950Z,70.48
2023-02-18T09:38:12.489Z,71.22
2023-02-18T09:45:14.156Z,71.94
2023-02-18T09:52:29.914Z,74.78
2023-02-18T09:59:31.618Z,75.30
2023-02-18T10:06:34.094Z,76.62
2023-02-18T10:13:35.709Z,76.58
2023-02-18T10:20:37.282Z,77.86
2023-02-18T10:27:39.005Z,77.90
2023-02-18T10:34:47.623Z,80.49
2023-02-18T10:42:08.465Z,84.18
2023-02-18T10:49:29.724Z,82.84
2023-02-18T10:56:48.670Z,84.87
2023-02-18T11:03:55.176Z,83.21
2023-02-18T11:10:57.116Z,84.08
2023-02-18T11:18:11.526Z,83.13
2023-02-18T11:25:33.081Z,84.78
2023-02-18T11:32:35.408Z,85.64
2023-02-18T11:39:36.962Z,85.95
2023-02-18T11:46:38.562Z,86.99
2023-02-18T11:54:01.302Z,88.30
2023-02-18T12:01:02.920Z,88.93
2023-02-18T12:08:15.459Z,90.17
2023-02-18T12:15:22.185Z,91.36
2023-02-18T12:22:43.011Z,93.01
2023-02-18T12:30:09.006Z,93.99
2023-02-18T12:37:46.311Z,94.92
2023-02-18T12:45:06.457Z,96.34
2023-02-18T12:52:26.089Z,99.71
2023-02-18T13:00:17.115Z,100.00
2023-02-18T13:07:33.576Z,100.00
2023-02-18T13:14:57.426Z,100.00
2023-02-18T13:22:00.557Z,100.00
2023-02-18T13:29:14.102Z,100.00
2023-02-18T13:36:22.079Z,100.00
2023-02-18T13:43:23.540Z,100.00
2023-02-18T13:50:29.157Z,100.00
2023-02-18T13:57:31.978Z,100.00
2023-02-18T14:04:36.489Z,100.00
2023-02-18T14:11:48.024Z,100.00
2023-02-18T14:18:57.881Z,100.00
2023-02-18T14:26:14.867Z,100.00
2023-02-18T14:33:16.538Z,100.00
2023-02-18T14:40:26.524Z,100.00
2023-02-18T14:47:41.844Z,100.00
2023-02-18T14:54:44.351Z,100.00
2023-02-18T15:01:46.758Z,100.00
2023-02-18T15:08:48.389Z,100.00
2023-02-18T15:15:52.241Z,100.00
2023-02-18T15:22:53.858Z,100.00
2023-02-18T15:30:20.162Z,100.00
2023-02-18T15:37:21.779Z,100.00
2023-02-18T15:44:24.836Z,100.00
2023-02-18T15:51:28.673Z,100.00
2023-02-18T15:58:31.430Z,100.00
2023-02-18T16:05:37.284Z,99.78
2023-02-18T16:12:39.241Z,100.00
2023-02-18T16:20:02.905Z,99.83
2023-02-18T16:27:07.494Z,99.01
2023-02-18T16:34:09.294Z,99.99
2023-02-18T16:41:14.314Z,100.00
2023-02-18T16:48:37.276Z,99.88
2023-02-18T16:55:38.899Z,99.94
2023-02-18T17:02:40.579Z,99.91
2023-02-18T17:09:42.127Z,99.04
2023-02-18T17:16:44.832Z,99.21
2023-02-18T17:23:46.549Z,97.14
2023-02-18T17:30:56.562Z,95.52
2023-02-18T17:37:58.369Z,94.39
2023-02-18T17:45:01.382Z,93.76
2023-02-18T17:52:03.103Z,93.30
2023-02-18T17:59:04.686Z,92.89
2023-02-18T18:06:09.990Z,90.11
2023-02-18T18:13:19.290Z,90.76
2023-02-18T18:20:20.930Z,88.37
2023-02-18T18:27:22.528Z,88.65
2023-02-18T18:34:24.102Z,87.80
2023-02-18T18:41:25.616Z,88.27
2023-02-18T18:48:27.418Z,87.77
2023-02-18T18:55:33.851Z,85.64
2023-02-18T19:02:35.524Z,85.79
2023-02-18T19:09:37.049Z,84.45
2023-02-18T19:16:39.103Z,85.02
2023-02-18T19:23:40.752Z,84.61
2023-02-18T19:30:42.526Z,83.75
2023-02-18T19:37:44.307Z,82.55
2023-02-18T19:44:45.921Z,83.35
2023-02-18T19:51:47.471Z,83.64
2023-02-18T19:58:48.982Z,83.43
2023-02-18T20:05:50.531Z,83.25
2023-02-18T20:12:53.353Z,83.12
2023-02-18T20:19:54.987Z,81.84
2023-02-18T20:26:57.471Z,82.42
2023-02-18T20:33:59.063Z,82.87
2023-02-18T20:41:05.264Z,83.60
2023-02-18T20:48:06.824Z,84.26
2023-02-18T20:55:08.496Z,83.81
2023-02-18T21:02:12.613Z,83.91
2023-02-18T21:09:14.772Z,84.35
2023-02-18T21:16:16.640Z,84.63
2023-02-18T21:23:18.244Z,84.38
2023-02-18T21:30:19.930Z,84.32
2023-02-18T21:37:21.618Z,83.17
2023-02-18T21:44:30.038Z,84.11
2023-02-18T21:51:57.979Z,84.08
2023-02-18T21:58:59.623Z,83.40
2023-02-18T22:06:01.152Z,82.61
2023-02-18T22:13:02.733Z,82.26
2023-02-18T22:20:08.255Z,82.55
2023-02-18T22:27:09.982Z,82.85
2023-02-18T22:34:11.517Z,82.85
2023-02-18T22:41:13.616Z,82.06
2023-02-18T22:48:15.177Z,81.14
2023-02-18T22:55:16.713Z,80.55
2023-02-18T23:02:19.759Z,80.18
2023-02-18T23:09:23.731Z,80.69
2023-02-18T23:16:25.336Z,79.56
2023-02-18T23:23:26.897Z,79.79
2023-02-18T23:30:28.531Z,79.80
2023-02-18T23:37:56.334Z,79.67
2023-02-18T23:44:57.894Z,79.43
2023-02-18T23:51:59.745Z,78.88
2023-02-18T23:59:04.462Z,78.96
